KEBS/EBS METAR and TAF weather

Enter ICAO airport designator
Station Type Date Time Source
KEBS METAR 2023/01/30 11:35 UTC NOAA

KEBS 301135Z AUTO 32008KT 10SM FEW047 BKN055 OVC080 M17/M20 A3044 RMK AO2


Station Type Date Time Source
KEBS Decoded METAR 2023/01/30 11:35 UTC NOAA

Webster City, IA, United States (KEBS) 42-26N 093-52W
Jan 30, 2023 - 06:35 AM EST / 2023.01.30 1135 UTC
Wind: from the NW (320 degrees) at 9 MPH (8 KT):0
Visibility: 10 mile(s):0
Sky conditions: overcast
Temperature: 1 F (-17 C)
Windchill: -13 F (-25 C):2
Dew Point: -4 F (-20 C)
Relative Humidity: 77%
Pressure (altimeter): 30.44 in. Hg (1030 hPa)
ob: KEBS 301135Z AUTO 32008KT 10SM FEW047 BKN055 OVC080 M17/M20 A3044 RMK AO2
cycle: 11

Station Type Date Time Source
KEBS TAF UTC NOAA

Error!

Example: see airport list